Time;durP1;ratioP1;P1;durP2;ratioP2;P2;SDS_P1;SDS_P2;PMS_P1;PMS_P2;Temp;Humidity;BMP_temperature;BMP_pressure;BME280_temperature;BME280_humidity;BME280_pressure;Samples;Min_cycle;Max_cycle;Signal;HPM_P1;HPM_P2
2022/07/17 00:00:44;;;;;;;2.50;1.13;;;;;;;;;;5076259;28;20048;-87
2022/07/17 00:03:12;;;;;;;2.47;1.00;;;;;;;;;;5075986;28;20071;-86
2022/07/17 00:05:39;;;;;;;3.90;0.95;;;;;;;;;;5093747;28;20472;-88
2022/07/17 00:08:07;;;;;;;4.38;0.98;;;;;;;;;;5075953;28;20048;-88
2022/07/17 00:10:35;;;;;;;2.25;1.08;;;;;;;;;;5076002;28;20113;-88
2022/07/17 00:13:03;;;;;;;4.22;0.90;;;;;;;;;;5093547;28;20086;-87
2022/07/17 00:15:30;;;;;;;1.85;0.93;;;;;;;;;;5075457;28;20561;-88
2022/07/17 00:17:58;;;;;;;5.00;1.02;;;;;;;;;;5093496;28;20081;-87
2022/07/17 00:20:27;;;;;;;1.98;0.88;;;;;;;;;;5093573;28;20051;-87
2022/07/17 00:22:55;;;;;;;0.93;0.90;;;;;;;;;;5093682;28;20084;-87
2022/07/17 00:25:22;;;;;;;2.03;1.08;;;;;;;;;;5075637;28;20555;-87
2022/07/17 00:27:49;;;;;;;1.30;0.80;;;;;;;;;;5093629;28;20071;-88
2022/07/17 00:30:17;;;;;;;0.85;0.77;;;;;;;;;;5076258;28;20083;-88
2022/07/17 00:32:44;;;;;;;4.68;1.55;;;;;;;;;;5075740;28;20101;-87
2022/07/17 00:35:12;;;;;;;1.75;1.10;;;;;;;;;;5093545;28;20476;-87
2022/07/17 00:37:46;;;;;;;2.65;1.08;;;;;;;;;;5076823;28;20480;-87
2022/07/17 00:40:17;;;;;;;4.38;1.00;;;;;;;;;;5093242;28;20074;-88
2022/07/17 00:42:45;;;;;;;3.63;1.15;;;;;;;;;;5075869;28;20101;-87
2022/07/17 00:45:13;;;;;;;3.20;1.35;;;;;;;;;;5093022;28;20083;-87
2022/07/17 00:47:49;;;;;;;6.15;1.10;;;;;;;;;;5075553;28;20524;-86
2022/07/17 00:50:17;;;;;;;2.88;1.02;;;;;;;;;;5093380;28;20093;-87
2022/07/17 00:52:44;;;;;;;3.20;1.35;;;;;;;;;;5075317;28;20048;-87
2022/07/17 00:55:12;;;;;;;3.45;1.30;;;;;;;;;;5092902;28;20059;-87
2022/07/17 00:58:01;;;;;;;2.08;1.40;;;;;;;;;;5093134;28;20408;-87
2022/07/17 01:00:28;;;;;;;4.10;1.50;;;;;;;;;;5093206;28;20193;-86
2022/07/17 01:02:56;;;;;;;3.72;1.25;;;;;;;;;;5093202;28;20051;-87
2022/07/17 01:05:23;;;;;;;4.82;1.05;;;;;;;;;;5078514;28;20546;-87
2022/07/17 01:07:50;;;;;;;5.00;0.82;;;;;;;;;;5079201;28;20052;-86
2022/07/17 01:10:18;;;;;;;1.40;0.70;;;;;;;;;;5096959;28;20496;-87
2022/07/17 01:12:46;;;;;;;3.97;0.93;;;;;;;;;;5097228;28;20086;-87
2022/07/17 01:15:14;;;;;;;4.47;1.30;;;;;;;;;;5079039;28;20116;-87
2022/07/17 01:17:43;;;;;;;3.17;1.00;;;;;;;;;;5096828;28;20127;-87
2022/07/17 01:20:11;;;;;;;4.95;1.17;;;;;;;;;;5078725;28;20083;-87
2022/07/17 01:22:45;;;;;;;2.58;1.05;;;;;;;;;;5097089;28;20105;-87
2022/07/17 01:25:14;;;;;;;2.55;1.10;;;;;;;;;;5078967;28;20044;-87
2022/07/17 01:27:41;;;;;;;3.15;1.13;;;;;;;;;;5096866;28;20082;-87
2022/07/17 01:30:09;;;;;;;2.63;1.08;;;;;;;;;;5096726;28;20070;-87
2022/07/17 01:32:37;;;;;;;4.55;1.20;;;;;;;;;;5078082;28;20048;-87
2022/07/17 01:35:05;;;;;;;2.67;1.00;;;;;;;;;;5078511;28;20044;-87
2022/07/17 01:37:32;;;;;;;2.30;1.30;;;;;;;;;;5078775;28;20080;-88
2022/07/17 01:39:59;;;;;;;4.68;1.15;;;;;;;;;;5096683;28;20080;-86
2022/07/17 01:42:27;;;;;;;2.65;1.27;;;;;;;;;;5078828;28;20078;-87
2022/07/17 01:44:55;;;;;;;4.22;1.50;;;;;;;;;;5078450;28;20076;-88
2022/07/17 01:47:23;;;;;;;5.45;1.40;;;;;;;;;;5078316;28;20047;-87
2022/07/17 01:49:52;;;;;;;1.52;1.42;;;;;;;;;;5096281;28;20079;-88
2022/07/17 01:52:19;;;;;;;2.33;1.20;;;;;;;;;;5078388;28;20083;-87
2022/07/17 01:54:46;;;;;;;4.10;1.27;;;;;;;;;;5078076;28;20138;-87
2022/07/17 01:57:14;;;;;;;4.43;1.38;;;;;;;;;;5078431;28;20082;-87
2022/07/17 01:59:41;;;;;;;2.25;1.40;;;;;;;;;;5095925;28;20044;-87
2022/07/17 02:02:09;;;;;;;5.53;1.38;;;;;;;;;;5078029;28;20052;-87
2022/07/17 02:04:38;;;;;;;2.42;1.30;;;;;;;;;;5095949;28;20052;-87
2022/07/17 02:07:05;;;;;;;3.67;1.38;;;;;;;;;;5078289;28;20503;-87
2022/07/17 02:09:32;;;;;;;5.00;1.42;;;;;;;;;;5096179;28;20542;-86
2022/07/17 02:12:00;;;;;;;6.30;1.42;;;;;;;;;;5078254;28;20048;-87
2022/07/17 02:14:27;;;;;;;4.90;1.73;;;;;;;;;;5077569;28;20095;-87
2022/07/17 02:16:54;;;;;;;1.92;1.27;;;;;;;;;;5077136;28;20079;-87
2022/07/17 02:19:21;;;;;;;2.35;1.05;;;;;;;;;;5077970;28;20500;-86
2022/07/17 02:21:49;;;;;;;2.90;1.40;;;;;;;;;;5095762;28;20051;-87
2022/07/17 02:24:16;;;;;;;2.45;1.30;;;;;;;;;;5077529;28;20408;-87
2022/07/17 02:26:43;;;;;;;4.43;1.95;;;;;;;;;;5077654;28;20052;-87
2022/07/17 02:29:10;;;;;;;3.30;1.20;;;;;;;;;;5077438;28;20100;-86
2022/07/17 02:31:37;;;;;;;1.92;1.23;;;;;;;;;;5077235;28;20083;-87
2022/07/17 02:34:05;;;;;;;3.78;1.48;;;;;;;;;;5095302;28;20079;-85
2022/07/17 02:36:32;;;;;;;1.73;1.20;;;;;;;;;;5077324;28;20052;-87
2022/07/17 02:38:59;;;;;;;3.95;1.45;;;;;;;;;;5077582;28;20048;-87
2022/07/17 02:41:26;;;;;;;1.90;1.30;;;;;;;;;;5094963;28;20416;-86
2022/07/17 02:43:54;;;;;;;2.92;1.50;;;;;;;;;;5095693;28;20071;-88
2022/07/17 02:46:21;;;;;;;3.95;1.33;;;;;;;;;;5077348;28;20095;-86
2022/07/17 02:48:48;;;;;;;2.22;1.38;;;;;;;;;;5077427;28;20388;-87
2022/07/17 02:51:15;;;;;;;3.15;1.38;;;;;;;;;;5076956;28;20079;-87
2022/07/17 02:53:42;;;;;;;4.50;1.33;;;;;;;;;;5077473;28;20071;-87
2022/07/17 02:56:10;;;;;;;4.85;1.25;;;;;;;;;;5077267;28;20136;-87
2022/07/17 02:58:37;;;;;;;2.35;1.40;;;;;;;;;;5077113;28;20131;-87
2022/07/17 03:01:04;;;;;;;2.95;1.40;;;;;;;;;;5094765;28;20417;-87
2022/07/17 03:03:31;;;;;;;4.05;1.55;;;;;;;;;;5076908;28;20087;-87
2022/07/17 03:05:59;;;;;;;3.80;1.10;;;;;;;;;;5094428;28;20056;-87
2022/07/17 03:08:26;;;;;;;2.25;1.27;;;;;;;;;;5076472;28;20087;-87
2022/07/17 03:10:53;;;;;;;4.70;1.70;;;;;;;;;;5076722;28;20142;-87
2022/07/17 03:13:20;;;;;;;3.60;1.52;;;;;;;;;;5076483;28;20061;-88
2022/07/17 03:15:48;;;;;;;3.97;1.70;;;;;;;;;;5076751;28;20044;-87
2022/07/17 03:18:15;;;;;;;3.63;2.03;;;;;;;;;;5076588;28;20056;-88
2022/07/17 03:20:42;;;;;;;4.35;1.48;;;;;;;;;;5076556;28;20071;-87
2022/07/17 03:23:10;;;;;;;2.58;1.60;;;;;;;;;;5094080;28;20055;-87
2022/07/17 03:25:38;;;;;;;5.28;1.90;;;;;;;;;;5076380;28;20047;-87
2022/07/17 03:28:05;;;;;;;5.85;1.52;;;;;;;;;;5093972;28;20084;-88
2022/07/17 03:30:32;;;;;;;4.05;1.70;;;;;;;;;;5076514;28;20071;-87
2022/07/17 03:32:59;;;;;;;1.85;1.45;;;;;;;;;;5075947;28;20131;-88
2022/07/17 03:35:27;;;;;;;2.35;1.65;;;;;;;;;;5076017;28;20054;-87
2022/07/17 03:37:54;;;;;;;4.25;1.80;;;;;;;;;;5076086;28;20070;-87
2022/07/17 03:40:21;;;;;;;4.57;2.08;;;;;;;;;;5094017;28;20105;-87
2022/07/17 03:42:48;;;;;;;3.97;1.65;;;;;;;;;;5076300;28;20075;-87
2022/07/17 03:45:15;;;;;;;4.70;1.90;;;;;;;;;;5075909;28;20079;-88
2022/07/17 03:47:43;;;;;;;5.88;2.08;;;;;;;;;;5093902;28;20071;-87
2022/07/17 03:50:10;;;;;;;5.82;1.85;;;;;;;;;;5093638;28;20090;-88
2022/07/17 03:52:37;;;;;;;4.03;1.77;;;;;;;;;;5093695;28;20052;-87
2022/07/17 03:55:04;;;;;;;1.55;1.38;;;;;;;;;;5093485;28;20078;-87
2022/07/17 03:57:32;;;;;;;5.18;1.85;;;;;;;;;;5075953;28;20051;-87
2022/07/17 04:00:01;;;;;;;5.75;2.72;;;;;;;;;;5093712;28;20040;-87
2022/07/17 04:02:28;;;;;;;4.60;2.97;;;;;;;;;;5075836;28;20083;-87
2022/07/17 04:04:55;;;;;;;5.75;3.03;;;;;;;;;;5093586;28;20052;-88
2022/07/17 04:07:29;;;;;;;3.47;2.50;;;;;;;;;;5075971;28;20090;-87
2022/07/17 04:09:59;;;;;;;3.92;1.95;;;;;;;;;;5076092;28;20560;-87
2022/07/17 04:12:27;;;;;;;7.32;2.05;;;;;;;;;;5075760;28;20087;-87
2022/07/17 04:14:54;;;;;;;2.75;2.05;;;;;;;;;;5075766;28;20052;-87
2022/07/17 04:17:22;;;;;;;4.25;1.85;;;;;;;;;;5075947;28;20075;-87
2022/07/17 04:19:49;;;;;;;2.63;1.70;;;;;;;;;;5075896;28;20094;-87
2022/07/17 04:22:17;;;;;;;5.47;1.63;;;;;;;;;;5075822;28;20496;-86
2022/07/17 04:24:44;;;;;;;6.60;1.60;;;;;;;;;;5075548;28;20130;-86
2022/07/17 04:27:11;;;;;;;1.55;1.40;;;;;;;;;;5075525;28;20048;-87
2022/07/17 04:29:39;;;;;;;4.90;1.80;;;;;;;;;;5075820;28;20408;-88
2022/07/17 04:32:06;;;;;;;3.03;1.70;;;;;;;;;;5074925;28;20480;-87
2022/07/17 04:34:34;;;;;;;4.55;1.98;;;;;;;;;;5092977;28;20127;-87
2022/07/17 04:37:02;;;;;;;2.22;1.60;;;;;;;;;;5093296;28;20134;-87
2022/07/17 04:39:29;;;;;;;2.20;1.80;;;;;;;;;;5095648;28;20457;-87
2022/07/17 04:41:56;;;;;;;4.93;1.50;;;;;;;;;;5097726;28;20048;-87
2022/07/17 04:44:24;;;;;;;2.17;1.55;;;;;;;;;;5079618;28;20461;-87
2022/07/17 04:46:51;;;;;;;3.40;1.35;;;;;;;;;;5097483;28;20083;-87
2022/07/17 04:49:18;;;;;;;1.42;1.05;;;;;;;;;;5079753;28;20500;-87
2022/07/17 04:51:45;;;;;;;3.22;1.40;;;;;;;;;;5097226;28;20094;-88
2022/07/17 04:54:12;;;;;;;4.30;1.77;;;;;;;;;;5079586;28;20084;-88
2022/07/17 04:56:40;;;;;;;6.57;1.83;;;;;;;;;;5079710;28;20152;-88
2022/07/17 04:59:07;;;;;;;4.30;1.70;;;;;;;;;;5079492;28;20051;-87
2022/07/17 05:01:34;;;;;;;1.73;1.13;;;;;;;;;;5079476;28;20472;-88
2022/07/17 05:04:02;;;;;;;7.07;1.65;;;;;;;;;;5079408;28;20488;-86
2022/07/17 05:06:29;;;;;;;5.68;1.50;;;;;;;;;;5079453;28;20101;-86
2022/07/17 05:08:56;;;;;;;3.50;1.35;;;;;;;;;;5079553;28;20492;-86
2022/07/17 05:11:23;;;;;;;4.63;1.00;;;;;;;;;;5078832;28;20106;-87
2022/07/17 05:13:51;;;;;;;3.33;2.90;;;;;;;;;;5079208;28;20087;-87
2022/07/17 05:16:18;;;;;;;12.52;6.75;;;;;;;;;;5078845;28;20050;-87
2022/07/17 05:18:45;;;;;;;21.35;16.98;;;;;;;;;;5079376;28;20052;-87
2022/07/17 05:21:14;;;;;;;30.50;22.42;;;;;;;;;;5079238;28;20084;-88
2022/07/17 05:23:41;;;;;;;12.00;7.95;;;;;;;;;;5096926;28;20052;-87
2022/07/17 05:26:08;;;;;;;12.20;9.77;;;;;;;;;;5078667;28;20094;-88
2022/07/17 05:28:36;;;;;;;3.58;2.85;;;;;;;;;;5079121;28;20083;-87
2022/07/17 05:31:04;;;;;;;2.17;1.90;;;;;;;;;;5078864;28;20097;-87
2022/07/17 05:33:32;;;;;;;1.63;1.50;;;;;;;;;;5078820;28;20048;-88
2022/07/17 05:36:00;;;;;;;3.33;1.13;;;;;;;;;;5078517;28;20091;-87
2022/07/17 05:38:27;;;;;;;3.15;1.40;;;;;;;;;;5078730;28;20055;-87
2022/07/17 05:40:54;;;;;;;3.42;1.30;;;;;;;;;;5078567;28;20090;-88
2022/07/17 05:43:21;;;;;;;2.65;1.45;;;;;;;;;;5078866;28;20111;-89
2022/07/17 05:45:48;;;;;;;5.88;1.90;;;;;;;;;;5096409;28;20089;-88
2022/07/17 05:48:16;;;;;;;2.85;1.83;;;;;;;;;;5078666;28;20105;-87
2022/07/17 05:50:43;;;;;;;4.55;1.52;;;;;;;;;;5095715;28;20064;-88
2022/07/17 05:53:10;;;;;;;4.10;3.35;;;;;;;;;;5078084;28;20102;-88
2022/07/17 05:55:37;;;;;;;4.13;2.13;;;;;;;;;;5078186;28;20048;-88
2022/07/17 05:58:04;;;;;;;6.20;2.17;;;;;;;;;;5078376;28;20478;-87
2022/07/17 06:00:32;;;;;;;1.42;0.90;;;;;;;;;;5078279;28;20086;-88
2022/07/17 06:02:59;;;;;;;2.67;1.00;;;;;;;;;;5078497;28;20478;-88
2022/07/17 06:05:27;;;;;;;2.17;1.05;;;;;;;;;;5077945;28;20078;-87
2022/07/17 06:07:55;;;;;;;3.53;1.02;;;;;;;;;;5095933;28;20445;-87
2022/07/17 06:10:23;;;;;;;1.55;1.05;;;;;;;;;;5078214;28;20487;-89
2022/07/17 06:12:52;;;;;;;2.00;1.10;;;;;;;;;;5078301;28;20097;-88
2022/07/17 06:15:20;;;;;;;3.33;1.30;;;;;;;;;;5077995;28;20515;-89
2022/07/17 06:17:48;;;;;;;4.80;1.48;;;;;;;;;;5078390;28;20480;-88
2022/07/17 06:20:16;;;;;;;5.88;1.33;;;;;;;;;;5095539;28;20590;-89
2022/07/17 06:22:43;;;;;;;5.53;1.75;;;;;;;;;;5077985;28;20508;-89
2022/07/17 06:25:11;;;;;;;8.30;1.45;;;;;;;;;;5077721;28;20488;-89
2022/07/17 06:27:39;;;;;;;7.32;1.65;;;;;;;;;;5078283;28;20433;-90
2022/07/17 06:30:07;;;;;;;6.00;1.30;;;;;;;;;;5078164;28;20048;-89
2022/07/17 06:32:35;;;;;;;8.15;1.45;;;;;;;;;;5077394;28;20071;-89
2022/07/17 06:35:02;;;;;;;6.45;1.27;;;;;;;;;;5077463;28;20072;-91
2022/07/17 06:37:29;;;;;;;6.60;1.45;;;;;;;;;;5078517;28;20082;-89
2022/07/17 06:39:56;;;;;;;5.38;1.33;;;;;;;;;;5079472;28;20044;-90
2022/07/17 06:42:24;;;;;;;5.72;1.20;;;;;;;;;;5079811;28;20063;-89
2022/07/17 06:44:57;;;;;;;1.92;1.00;;;;;;;;;;5078686;28;20044;-89
2022/07/17 06:47:25;;;;;;;3.53;0.85;;;;;;;;;;5077318;28;20048;-88
2022/07/17 06:49:52;;;;;;;2.90;0.95;;;;;;;;;;5077751;28;20523;-89
2022/07/17 06:52:19;;;;;;;6.05;1.02;;;;;;;;;;5077423;28;20052;-90
2022/07/17 06:54:46;;;;;;;1.85;0.95;;;;;;;;;;5077636;28;20052;-91
2022/07/17 06:57:13;;;;;;;2.15;0.80;;;;;;;;;;5077069;28;20093;-90
2022/07/17 06:59:40;;;;;;;3.72;0.82;;;;;;;;;;5077495;28;20127;-91
2022/07/17 07:02:07;;;;;;;5.50;1.40;;;;;;;;;;5076381;28;20068;-90
2022/07/17 07:04:35;;;;;;;4.15;1.00;;;;;;;;;;5077248;28;20052;-90
2022/07/17 07:07:02;;;;;;;2.20;0.68;;;;;;;;;;5077349;28;20048;-90
2022/07/17 07:09:29;;;;;;;4.20;0.98;;;;;;;;;;5077275;28;20156;-90
2022/07/17 07:11:56;;;;;;;2.17;0.80;;;;;;;;;;5077106;28;20052;-93
2022/07/17 07:14:24;;;;;;;5.43;0.82;;;;;;;;;;5077029;28;20063;-91
2022/07/17 07:16:51;;;;;;;3.58;0.98;;;;;;;;;;5076805;28;20048;-90
2022/07/17 07:19:18;;;;;;;2.47;0.70;;;;;;;;;;5077203;28;20139;-90
2022/07/17 07:21:45;;;;;;;5.38;1.00;;;;;;;;;;5078094;28;20056;-89
2022/07/17 07:24:12;;;;;;;2.67;0.80;;;;;;;;;;5077014;28;20048;-90
2022/07/17 07:26:39;;;;;;;4.88;0.90;;;;;;;;;;5076861;28;20075;-91
2022/07/17 07:29:07;;;;;;;2.58;0.93;;;;;;;;;;5079189;28;20052;-92
2022/07/17 07:31:42;;;;;;;3.38;0.80;;;;;;;;;;5077869;28;20492;-91
2022/07/17 07:34:09;;;;;;;3.63;0.90;;;;;;;;;;5076880;28;20048;-91
2022/07/17 07:36:37;;;;;;;5.65;1.13;;;;;;;;;;5077190;28;20423;-92
2022/07/17 07:39:04;;;;;;;2.65;0.90;;;;;;;;;;5078472;28;20056;-89
2022/07/17 07:41:31;;;;;;;4.90;1.00;;;;;;;;;;5076643;28;20082;-92
2022/07/17 07:43:58;;;;;;;2.40;1.02;;;;;;;;;;5077478;28;20451;-91
2022/07/17 07:46:26;;;;;;;2.72;0.93;;;;;;;;;;5084146;28;20048;-93
2022/07/17 07:48:53;;;;;;;1.30;0.75;;;;;;;;;;5088085;28;20487;-88
2022/07/17 07:51:20;;;;;;;3.05;0.95;;;;;;;;;;5078103;28;20048;-95
2022/07/17 07:54:08;;;;;;;3.97;1.08;;;;;;;;;;5079441;28;20047;-94
2022/07/17 07:56:36;;;;;;;1.55;0.80;;;;;;;;;;5076170;28;20048;-90
2022/07/17 07:59:03;;;;;;;1.95;0.75;;;;;;;;;;5076982;28;20071;-91
2022/07/17 08:01:30;;;;;;;2.40;0.85;;;;;;;;;;5076406;28;20048;-89
2022/07/17 08:03:58;;;;;;;2.28;0.70;;;;;;;;;;5076624;28;20548;-90
2022/07/17 08:06:25;;;;;;;5.32;1.20;;;;;;;;;;5075630;28;20087;-93
2022/07/17 08:08:53;;;;;;;2.70;0.73;;;;;;;;;;5076445;28;20048;-90
2022/07/17 08:11:20;;;;;;;4.28;1.30;;;;;;;;;;5076187;28;20465;-91
2022/07/17 08:13:47;;;;;;;2.67;1.10;;;;;;;;;;5076149;28;20055;-93
2022/07/17 08:16:14;;;;;;;4.10;1.02;;;;;;;;;;5076457;28;20047;-88
2022/07/17 08:18:41;;;;;;;2.28;0.60;;;;;;;;;;5076891;28;20055;-88
2022/07/17 08:21:08;;;;;;;1.63;0.70;;;;;;;;;;5075797;28;20075;-87
2022/07/17 08:23:39;;;;;;;2.55;1.33;;;;;;;;;;5076943;28;20052;-95
2022/07/17 08:26:06;;;;;;;5.72;1.10;;;;;;;;;;5077265;28;20063;-93
2022/07/17 08:28:37;;;;;;;5.70;1.00;;;;;;;;;;5078055;28;20082;-90
2022/07/17 08:31:04;;;;;;;5.57;1.00;;;;;;;;;;5076355;28;20052;-88
2022/07/17 08:33:32;;;;;;;5.40;0.90;;;;;;;;;;5076185;28;20071;-93
2022/07/17 08:35:59;;;;;;;4.65;0.90;;;;;;;;;;5075694;28;20068;-92
2022/07/17 08:38:26;;;;;;;2.25;0.75;;;;;;;;;;5074892;28;20079;-91
2022/07/17 08:40:54;;;;;;;3.00;0.80;;;;;;;;;;5075866;28;20064;-91
2022/07/17 08:43:21;;;;;;;4.18;0.80;;;;;;;;;;5077703;28;20086;-92
2022/07/17 08:45:49;;;;;;;1.10;0.60;;;;;;;;;;5076131;28;20054;-88
2022/07/17 08:48:17;;;;;;;2.08;0.68;;;;;;;;;;5075585;28;20051;-90
2022/07/17 08:50:45;;;;;;;2.53;0.70;;;;;;;;;;5075927;28;20067;-95
2022/07/17 08:53:13;;;;;;;2.47;0.93;;;;;;;;;;5079394;28;20549;-95
2022/07/17 08:55:43;;;;;;;1.75;0.90;;;;;;;;;;5080458;28;20056;-90
2022/07/17 08:58:15;;;;;;;5.65;0.90;;;;;;;;;;5075732;28;20089;-90
2022/07/17 09:00:42;;;;;;;2.70;1.05;;;;;;;;;;5079697;28;20044;-91
2022/07/17 09:03:09;;;;;;;1.20;0.65;;;;;;;;;;5076939;28;20106;-92
2022/07/17 09:05:40;;;;;;;1.77;0.88;;;;;;;;;;5077905;28;20052;-92
2022/07/17 09:08:08;;;;;;;2.88;0.65;;;;;;;;;;5077936;28;20048;-94
2022/07/17 09:10:43;;;;;;;1.95;1.00;;;;;;;;;;5076452;28;20043;-94
2022/07/17 09:13:22;;;;;;;3.53;1.33;;;;;;;;;;5079206;28;20497;-93
2022/07/17 09:15:51;;;;;;;1.98;0.60;;;;;;;;;;5076218;28;20415;-94
2022/07/17 09:18:18;;;;;;;2.45;0.77;;;;;;;;;;5075903;28;20059;-92
2022/07/17 09:20:47;;;;;;;2.38;0.60;;;;;;;;;;5077355;28;20048;-93
2022/07/17 09:23:15;;;;;;;2.58;0.85;;;;;;;;;;5076271;28;20076;-93
2022/07/17 09:25:44;;;;;;;1.77;0.70;;;;;;;;;;5077544;28;20044;-90
2022/07/17 09:28:12;;;;;;;2.67;0.80;;;;;;;;;;5080162;28;20090;-94
2022/07/17 09:30:40;;;;;;;4.20;0.95;;;;;;;;;;5081366;28;20048;-91
2022/07/17 09:33:12;;;;;;;2.20;0.80;;;;;;;;;;5082304;28;20052;-87
2022/07/17 09:35:46;;;;;;;3.25;1.33;;;;;;;;;;5079917;28;20044;-89
2022/07/17 09:38:24;;;;;;;1.48;1.10;;;;;;;;;;5080156;28;20048;-90
2022/07/17 09:41:15;;;;;;;1.23;0.60;;;;;;;;;;5080414;28;20052;-89
2022/07/17 09:43:44;;;;;;;3.72;1.00;;;;;;;;;;5078645;28;20052;-89
2022/07/17 09:46:13;;;;;;;1.15;0.60;;;;;;;;;;5078488;28;20044;-91
2022/07/17 09:48:46;;;;;;;2.83;0.60;;;;;;;;;;5078962;28;20414;-91
2022/07/17 09:51:16;;;;;;;4.28;0.90;;;;;;;;;;5078391;28;20134;-92
2022/07/17 09:53:44;;;;;;;1.15;0.45;;;;;;;;;;5078470;28;20475;-90
2022/07/17 09:56:13;;;;;;;1.95;0.60;;;;;;;;;;5077310;28;20048;-92
2022/07/17 09:58:42;;;;;;;1.45;0.40;;;;;;;;;;5079719;28;20648;-94
2022/07/17 10:01:10;;;;;;;1.27;0.80;;;;;;;;;;5077766;28;20048;-91
2022/07/17 10:03:37;;;;;;;1.83;0.68;;;;;;;;;;5077591;28;20077;-91
2022/07/17 10:06:05;;;;;;;1.17;0.80;;;;;;;;;;5077343;28;20063;-91
2022/07/17 10:08:33;;;;;;;1.58;0.70;;;;;;;;;;5081526;28;20101;-87
2022/07/17 10:11:01;;;;;;;3.50;0.60;;;;;;;;;;5087692;28;20118;-92
2022/07/17 10:13:29;;;;;;;1.23;0.40;;;;;;;;;;5077184;28;20056;-89
2022/07/17 10:15:56;;;;;;;1.35;0.50;;;;;;;;;;5078227;28;20052;-94
2022/07/17 10:18:41;;;;;;;2.38;0.60;;;;;;;;;;5078908;28;20404;-96
2022/07/17 10:21:16;;;;;;;1.23;0.60;;;;;;;;;;5077175;28;20462;-87
2022/07/17 10:23:47;;;;;;;2.42;0.55;;;;;;;;;;5079180;28;20048;-92
2022/07/17 10:26:15;;;;;;;3.15;0.60;;;;;;;;;;5076780;28;20056;-92
2022/07/17 10:28:43;;;;;;;1.70;0.77;;;;;;;;;;5077415;28;20051;-87
2022/07/17 10:31:10;;;;;;;1.50;0.73;;;;;;;;;;5078002;28;20493;-89
2022/07/17 10:33:38;;;;;;;1.27;0.70;;;;;;;;;;5076657;28;20441;-93
2022/07/17 10:36:05;;;;;;;0.95;0.60;;;;;;;;;;5077038;28;20077;-90
2022/07/17 10:38:41;;;;;;;1.50;0.68;;;;;;;;;;5076604;28;20074;-91
2022/07/17 10:41:08;;;;;;;2.00;0.70;;;;;;;;;;5076701;28;20044;-88
2022/07/17 10:43:44;;;;;;;2.33;0.50;;;;;;;;;;5097238;28;20504;-88
2022/07/17 10:46:11;;;;;;;;;;;;;;;;;;5077251;28;20048;-89
2022/07/17 10:48:40;;;;;;;1.48;0.60;;;;;;;;;;5076635;28;19928;-89
2022/07/17 10:51:08;;;;;;;2.67;1.30;;;;;;;;;;5041589;28;1063063;-92
2022/07/17 10:53:35;;;;;;;2.20;0.68;;;;;;;;;;5078583;28;20051;-87
2022/07/17 10:56:06;;;;;;;1.35;0.60;;;;;;;;;;5078256;28;20523;-90
2022/07/17 10:58:39;;;;;;;1.70;0.80;;;;;;;;;;5078167;28;20489;-93
2022/07/17 11:01:09;;;;;;;3.13;0.80;;;;;;;;;;5077805;28;20485;-92
2022/07/17 11:03:38;;;;;;;2.25;0.77;;;;;;;;;;5077230;28;20056;-91
2022/07/17 11:06:11;;;;;;;1.80;0.90;;;;;;;;;;5077797;28;20048;-93
2022/07/17 11:08:38;;;;;;;;;;;;;;;;;;5078136;28;20052;-90
2022/07/17 11:11:06;;;;;;;2.03;1.20;;;;;;;;;;5077839;28;19920;-89
2022/07/17 11:13:33;;;;;;;1.88;0.55;;;;;;;;;;5077119;28;20553;-91
2022/07/17 11:16:00;;;;;;;3.88;0.55;;;;;;;;;;5077798;28;20067;-92
2022/07/17 11:18:27;;;;;;;2.58;0.75;;;;;;;;;;5077296;28;20072;-90
2022/07/17 11:20:56;;;;;;;2.05;1.05;;;;;;;;;;5077033;28;20086;-92
2022/07/17 11:23:24;;;;;;;1.95;0.70;;;;;;;;;;5076751;28;20082;-90
2022/07/17 11:26:02;;;;;;;4.00;0.77;;;;;;;;;;5076534;28;20078;-91
2022/07/17 11:28:35;;;;;;;3.05;0.80;;;;;;;;;;5076901;28;20052;-89
2022/07/17 11:31:04;;;;;;;1.48;0.60;;;;;;;;;;5076198;28;20047;-91
2022/07/17 11:33:31;;;;;;;1.02;0.55;;;;;;;;;;5077765;28;20055;-92
2022/07/17 11:35:59;;;;;;;2.53;0.63;;;;;;;;;;5077135;28;20067;-91
2022/07/17 11:38:27;;;;;;;1.75;0.55;;;;;;;;;;5077106;28;20071;-92
2022/07/17 11:40:54;;;;;;;2.13;0.50;;;;;;;;;;5078767;28;20055;-90
2022/07/17 11:43:28;;;;;;;;;;;;;;;;;;5077858;28;20044;-88
2022/07/17 11:45:55;;;;;;;2.28;0.60;;;;;;;;;;5076965;28;19973;-87
2022/07/17 11:48:22;;;;;;;4.00;0.80;;;;;;;;;;5076348;28;20488;-88
2022/07/17 11:50:53;;;;;;;1.35;0.60;;;;;;;;;;5076893;28;20205;-90
2022/07/17 11:53:30;;;;;;;1.67;0.50;;;;;;;;;;5076026;28;20079;-87
2022/07/17 11:55:58;;;;;;;2.47;0.57;;;;;;;;;;5079093;28;20480;-96
2022/07/17 11:58:25;;;;;;;1.60;0.52;;;;;;;;;;5076988;28;20048;-93
2022/07/17 12:01:03;;;;;;;1.27;0.47;;;;;;;;;;5078062;28;20063;-95
2022/07/17 12:03:30;;;;;;;4.18;0.82;;;;;;;;;;5077291;28;20560;-93
2022/07/17 12:05:58;;;;;;;0.50;0.50;;;;;;;;;;5077345;28;20052;-87
2022/07/17 12:08:25;;;;;;;1.67;0.60;;;;;;;;;;5093919;28;20139;-87
2022/07/17 12:11:02;;;;;;;1.58;0.50;;;;;;;;;;5076824;28;20076;-88
2022/07/17 12:13:39;;;;;;;2.45;0.50;;;;;;;;;;5093568;28;20590;-92
2022/07/17 12:16:25;;;;;;;0.60;0.50;;;;;;;;;;5076245;28;20052;-94
2022/07/17 12:18:57;;;;;;;2.58;0.47;;;;;;;;;;5077016;28;20105;-94
2022/07/17 12:21:25;;;;;;;2.00;0.32;;;;;;;;;;5076912;28;20052;-92
2022/07/17 12:24:18;;;;;;;1.27;0.60;;;;;;;;;;5076146;28;20069;-91
2022/07/17 12:26:46;;;;;;;2.42;0.60;;;;;;;;;;5076975;28;20048;-92
2022/07/17 12:29:13;;;;;;;1.33;0.50;;;;;;;;;;5082573;28;20059;-91
2022/07/17 12:31:41;;;;;;;0.70;0.32;;;;;;;;;;5077198;28;20148;-93
2022/07/17 12:34:08;;;;;;;1.85;0.60;;;;;;;;;;5076700;28;20160;-92
2022/07/17 12:36:35;;;;;;;0.55;0.40;;;;;;;;;;5076606;28;20078;-93
2022/07/17 12:39:02;;;;;;;1.15;0.60;;;;;;;;;;5075912;28;20139;-93
2022/07/17 12:41:30;;;;;;;1.10;0.50;;;;;;;;;;5075804;28;20051;-92
2022/07/17 12:43:57;;;;;;;3.50;0.77;;;;;;;;;;5079247;28;20056;-91
2022/07/17 12:46:24;;;;;;;1.67;0.70;;;;;;;;;;5075455;28;20066;-92
2022/07/17 12:48:52;;;;;;;2.63;0.70;;;;;;;;;;5075367;28;20471;-86
2022/07/17 12:51:19;;;;;;;1.02;0.47;;;;;;;;;;5075168;28;20469;-90
2022/07/17 12:53:46;;;;;;;1.92;0.40;;;;;;;;;;5075358;28;20068;-93
2022/07/17 12:56:13;;;;;;;0.85;0.40;;;;;;;;;;5077750;28;20458;-91
2022/07/17 12:58:40;;;;;;;0.75;0.45;;;;;;;;;;5077018;28;20144;-91
2022/07/17 13:01:08;;;;;;;0.63;0.50;;;;;;;;;;5079831;28;20101;-94
2022/07/17 13:03:36;;;;;;;0.38;0.30;;;;;;;;;;5079538;28;20481;-92
2022/07/17 13:06:04;;;;;;;1.55;0.52;;;;;;;;;;5083615;28;20044;-91
2022/07/17 13:08:32;;;;;;;1.02;0.45;;;;;;;;;;5080859;28;20094;-94
2022/07/17 13:11:00;;;;;;;1.08;0.35;;;;;;;;;;5080954;28;20040;-91
2022/07/17 13:13:30;;;;;;;0.32;0.30;;;;;;;;;;5080603;28;20059;-94
2022/07/17 13:15:57;;;;;;;0.77;0.40;;;;;;;;;;5079510;28;20505;-95
2022/07/17 13:18:25;;;;;;;1.20;0.40;;;;;;;;;;5082153;28;20044;-94
2022/07/17 13:20:52;;;;;;;1.83;0.50;;;;;;;;;;5079459;28;20145;-89
2022/07/17 13:23:27;;;;;;;0.32;0.32;;;;;;;;;;5081028;28;20060;-92
2022/07/17 13:25:55;;;;;;;1.98;0.45;;;;;;;;;;5079783;28;20058;-90
2022/07/17 13:28:22;;;;;;;0.65;0.45;;;;;;;;;;5081977;28;20132;-92
2022/07/17 13:30:49;;;;;;;2.63;0.50;;;;;;;;;;5079313;28;20484;-92
2022/07/17 13:33:17;;;;;;;1.85;0.60;;;;;;;;;;5079267;28;20058;-96
2022/07/17 13:35:44;;;;;;;0.50;0.40;;;;;;;;;;5080355;28;20074;-93
2022/07/17 13:38:12;;;;;;;1.67;0.40;;;;;;;;;;5080086;28;20544;-94
2022/07/17 13:40:42;;;;;;;0.50;0.32;;;;;;;;;;5080360;28;20117;-93
2022/07/17 13:43:10;;;;;;;0.52;0.45;;;;;;;;;;5079081;28;20048;-92
2022/07/17 13:45:37;;;;;;;0.35;0.30;;;;;;;;;;5079259;28;20151;-89
2022/07/17 13:48:05;;;;;;;0.95;0.45;;;;;;;;;;5079988;28;20048;-92
2022/07/17 13:50:32;;;;;;;0.30;0.30;;;;;;;;;;5079377;28;20122;-93
2022/07/17 13:53:01;;;;;;;2.05;0.50;;;;;;;;;;5079546;28;20075;-92
2022/07/17 13:55:28;;;;;;;1.30;0.60;;;;;;;;;;5079238;28;20534;-88
2022/07/17 13:58:08;;;;;;;0.80;0.40;;;;;;;;;;5080547;28;20048;-86
2022/07/17 14:00:38;;;;;;;4.28;0.50;;;;;;;;;;5078460;28;20076;-93
2022/07/17 14:03:05;;;;;;;0.57;0.40;;;;;;;;;;5078552;28;20461;-87
2022/07/17 14:05:33;;;;;;;0.40;0.30;;;;;;;;;;5079297;28;20492;-93
2022/07/17 14:08:02;;;;;;;1.67;0.80;;;;;;;;;;5078850;28;20056;-89
2022/07/17 14:10:29;;;;;;;1.25;0.88;;;;;;;;;;5078691;28;20051;-87
2022/07/17 14:12:56;;;;;;;1.52;0.63;;;;;;;;;;5080386;28;20059;-92
2022/07/17 14:15:24;;;;;;;0.73;0.45;;;;;;;;;;5078955;28;20078;-92
2022/07/17 14:17:53;;;;;;;3.30;1.13;;;;;;;;;;5078792;28;20048;-93
2022/07/17 14:20:28;;;;;;;0.50;0.40;;;;;;;;;;5079708;28;20125;-93
2022/07/17 14:22:55;;;;;;;1.50;0.73;;;;;;;;;;5078240;28;20074;-94
2022/07/17 14:25:25;;;;;;;2.25;0.73;;;;;;;;;;5078049;28;20055;-95
2022/07/17 14:27:53;;;;;;;2.90;0.60;;;;;;;;;;5078971;28;20077;-91
2022/07/17 14:30:20;;;;;;;0.52;0.52;;;;;;;;;;5077983;28;20550;-92
2022/07/17 14:32:47;;;;;;;0.47;0.32;;;;;;;;;;5078531;28;20097;-93
2022/07/17 14:35:15;;;;;;;1.27;0.40;;;;;;;;;;5077326;28;20442;-91
2022/07/17 14:37:42;;;;;;;1.27;0.50;;;;;;;;;;5077762;28;20052;-90
2022/07/17 14:40:11;;;;;;;1.08;0.40;;;;;;;;;;5077944;28;20443;-88
2022/07/17 14:42:38;;;;;;;0.98;0.50;;;;;;;;;;5078161;28;20052;-91
2022/07/17 14:45:05;;;;;;;0.63;0.47;;;;;;;;;;5084207;28;20048;-89
2022/07/17 14:47:33;;;;;;;1.48;0.43;;;;;;;;;;5077610;28;20147;-92
2022/07/17 14:50:00;;;;;;;1.80;0.45;;;;;;;;;;5078410;28;20056;-88